Time;durP1;ratioP1;P1;durP2;ratioP2;P2;SDS_P1;SDS_P2;PMS_P1;PMS_P2;Temp;Humidity;BMP_temperature;BMP_pressure;BME280_temperature;BME280_humidity;BME280_pressure;Samples;Min_cycle;Max_cycle;Signal;HPM_P1;HPM_P2
2023/07/26 00:01:31;;;;;;;1.65;1.23;;;20.50;56.40;;;;;;5112762;28;20719;-61
2023/07/26 00:03:58;;;;;;;0.95;0.95;;;20.50;56.20;;;;;;5111679;28;20196;-61
2023/07/26 00:06:24;;;;;;;1.73;1.20;;;20.50;56.20;;;;;;5112551;28;20520;-61
2023/07/26 00:08:50;;;;;;;1.85;1.35;;;20.50;56.20;;;;;;5112337;28;20173;-60
2023/07/26 00:11:16;;;;;;;2.53;1.35;;;20.50;56.20;;;;;;5111774;28;20177;-60
2023/07/26 00:13:41;;;;;;;1.13;1.10;;;20.50;56.90;;;;;;5112398;28;20193;-60
2023/07/26 00:16:07;;;;;;;1.35;1.25;;;20.50;56.30;;;;;;5112175;28;20268;-60
2023/07/26 00:18:32;;;;;;;2.60;1.10;;;20.50;56.30;;;;;;5111825;28;20184;-60
2023/07/26 00:20:58;;;;;;;1.23;1.13;;;20.40;56.30;;;;;;5112103;28;20177;-60
2023/07/26 00:23:23;;;;;;;2.47;1.20;;;20.40;56.30;;;;;;5111895;28;20218;-60
2023/07/26 00:25:49;;;;;;;1.88;1.10;;;20.40;56.30;;;;;;5112330;28;20302;-60
2023/07/26 00:28:14;;;;;;;1.80;1.20;;;20.40;56.30;;;;;;5112216;28;20181;-60
2023/07/26 00:30:40;;;;;;;1.42;1.33;;;20.40;56.40;;;;;;5126525;28;20184;-60
2023/07/26 00:33:06;;;;;;;1.23;0.95;;;20.40;56.40;;;;;;5132667;28;20259;-60
2023/07/26 00:35:35;;;;;;;1.30;1.10;;;20.40;57.00;;;;;;5132817;28;20257;-61
2023/07/26 00:38:00;;;;;;;1.88;1.20;;;20.40;56.40;;;;;;5131581;28;20196;-62
2023/07/26 00:40:26;;;;;;;2.65;1.30;;;20.40;56.50;;;;;;5132549;28;20317;-61
2023/07/26 00:42:52;;;;;;;1.58;1.48;;;20.40;56.50;;;;;;5132940;28;20176;-60
2023/07/26 00:45:17;;;;;;;1.20;1.10;;;20.40;56.50;;;;;;5134344;27;20257;-61
2023/07/26 00:47:43;;;;;;;1.65;1.20;;;20.40;56.60;;;;;;5136463;27;20176;-60
2023/07/26 00:50:09;;;;;;;1.45;1.20;;;20.40;56.60;;;;;;5136158;27;20165;-60
2023/07/26 00:52:34;;;;;;;1.30;1.20;;;20.40;57.30;;;;;;5117143;27;20180;-60
2023/07/26 00:55:02;;;;;;;2.78;1.42;;;20.40;56.70;;;;;;5136114;27;20215;-60
2023/07/26 00:57:28;;;;;;;2.20;1.27;;;20.40;57.40;;;;;;5136506;27;20226;-60
2023/07/26 00:59:54;;;;;;;1.45;1.30;;;20.40;56.70;;;;;;5117393;27;20187;-61
2023/07/26 01:02:20;;;;;;;2.75;1.38;;;20.40;56.80;;;;;;5136084;27;20169;-61
2023/07/26 01:04:45;;;;;;;1.00;1.00;;;20.30;56.70;;;;;;5136064;27;20203;-61
2023/07/26 01:07:18;;;;;;;1.80;1.38;;;20.30;56.70;;;;;;5135304;27;20169;-61
2023/07/26 01:09:46;;;;;;;1.55;1.25;;;20.30;56.70;;;;;;5136306;27;20180;-61
2023/07/26 01:12:35;;;;;;;1.38;1.25;;;20.30;56.80;;;;;;5135726;27;20172;-60
2023/07/26 01:15:06;;;;;;;3.03;1.70;;;20.30;56.80;;;;;;5117243;27;20575;-61
2023/07/26 01:17:31;;;;;;;2.53;1.35;;;20.30;56.80;;;;;;5136014;27;20554;-60
2023/07/26 01:19:57;;;;;;;3.85;1.80;;;20.40;56.90;;;;;;5116498;27;20267;-60
2023/07/26 01:22:22;;;;;;;3.80;1.75;;;20.30;56.90;;;;;;5135634;27;20259;-60
2023/07/26 01:24:48;;;;;;;1.88;1.48;;;20.30;56.90;;;;;;5135685;27;20200;-61
2023/07/26 01:27:13;;;;;;;1.35;1.10;;;20.30;56.90;;;;;;5134850;27;20168;-60
2023/07/26 01:29:39;;;;;;;1.65;1.38;;;20.30;56.90;;;;;;5129593;27;20270;-60
2023/07/26 01:32:06;;;;;;;1.83;1.30;;;20.30;56.90;;;;;;5114671;28;20517;-61
2023/07/26 01:34:32;;;;;;;1.35;1.25;;;20.30;57.00;;;;;;5079205;28;20213;-61
2023/07/26 01:36:58;;;;;;;2.33;1.50;;;20.30;57.00;;;;;;5114796;28;20176;-61
2023/07/26 01:39:23;;;;;;;2.35;1.75;;;20.30;57.00;;;;;;5079606;28;20221;-61
2023/07/26 01:41:49;;;;;;;2.00;1.20;;;20.30;57.00;;;;;;5095850;28;20186;-61
2023/07/26 01:44:14;;;;;;;1.20;1.15;;;20.30;57.10;;;;;;5114437;28;20181;-61
2023/07/26 01:46:40;;;;;;;1.85;1.55;;;20.30;57.00;;;;;;5114590;28;20176;-60
2023/07/26 01:49:05;;;;;;;2.08;1.67;;;20.30;57.00;;;;;;5113551;28;20177;-60
2023/07/26 01:51:31;;;;;;;2.05;1.50;;;20.30;57.60;;;;;;5114500;28;20169;-59
2023/07/26 01:53:56;;;;;;;1.77;1.35;;;20.20;57.00;;;;;;5114151;28;20242;-60
2023/07/26 01:56:22;;;;;;;2.63;1.48;;;20.30;57.00;;;;;;5112587;28;20173;-61
2023/07/26 01:58:47;;;;;;;1.40;1.30;;;20.30;57.00;;;;;;5114654;28;20165;-61
2023/07/26 02:01:13;;;;;;;1.58;1.48;;;20.20;56.90;;;;;;5114068;28;20229;-61
2023/07/26 02:03:38;;;;;;;1.90;1.60;;;20.20;56.90;;;;;;5113837;28;20199;-61
2023/07/26 02:06:04;;;;;;;1.60;1.50;;;20.20;56.90;;;;;;5114269;28;20631;-61
2023/07/26 02:08:30;;;;;;;2.72;1.60;;;20.20;57.00;;;;;;5114277;28;20176;-61
2023/07/26 02:10:55;;;;;;;1.40;1.30;;;20.20;56.90;;;;;;5113512;28;20250;-60
2023/07/26 02:13:21;;;;;;;1.90;1.40;;;20.20;56.90;;;;;;5114069;28;20177;-60
2023/07/26 02:15:46;;;;;;;1.70;1.55;;;20.20;56.90;;;;;;5113479;28;20271;-60
2023/07/26 02:18:12;;;;;;;1.73;1.45;;;20.20;56.90;;;;;;5113642;28;20173;-60
2023/07/26 02:20:38;;;;;;;1.60;1.50;;;20.20;56.90;;;;;;5114088;28;20226;-60
2023/07/26 02:23:03;;;;;;;1.48;1.38;;;20.20;56.90;;;;;;5113043;28;20650;-60
2023/07/26 02:25:29;;;;;;;2.42;1.45;;;20.10;56.80;;;;;;5113852;28;20165;-60
2023/07/26 02:27:54;;;;;;;2.85;1.30;;;20.10;56.80;;;;;;5113866;28;20177;-60
2023/07/26 02:30:20;;;;;;;2.15;1.35;;;20.10;56.80;;;;;;5124627;27;20164;-60
2023/07/26 02:32:45;;;;;;;1.67;1.50;;;20.20;56.90;;;;;;5134301;27;20179;-60
2023/07/26 02:35:11;;;;;;;1.27;1.17;;;20.20;56.90;;;;;;5134021;27;20219;-61
2023/07/26 02:37:36;;;;;;;2.88;1.60;;;20.10;56.80;;;;;;5133564;27;20182;-61
2023/07/26 02:40:02;;;;;;;2.60;1.65;;;20.10;56.70;;;;;;5133759;27;20228;-61
2023/07/26 02:42:28;;;;;;;1.63;1.52;;;20.10;56.70;;;;;;5134315;27;20200;-61
2023/07/26 02:44:54;;;;;;;1.60;1.40;;;20.10;56.70;;;;;;5133374;27;20642;-60
2023/07/26 02:47:20;;;;;;;1.85;1.60;;;20.10;56.60;;;;;;5133625;27;20280;-60
2023/07/26 02:49:45;;;;;;;1.30;1.20;;;20.10;56.60;;;;;;5134036;27;20246;-60
2023/07/26 02:52:11;;;;;;;2.95;1.58;;;20.10;56.50;;;;;;5133235;27;20211;-60
2023/07/26 02:54:36;;;;;;;1.30;1.20;;;20.10;56.50;;;;;;5133808;27;20208;-60
2023/07/26 02:57:02;;;;;;;1.65;1.55;;;20.10;56.50;;;;;;5133699;27;20179;-60
2023/07/26 02:59:27;;;;;;;1.27;1.20;;;20.00;56.40;;;;;;5133149;27;20169;-61
2023/07/26 03:01:53;;;;;;;2.00;1.55;;;20.00;56.30;;;;;;5133788;27;20241;-61
2023/07/26 03:04:18;;;;;;;2.25;1.48;;;20.00;56.30;;;;;;5133722;27;20180;-61
2023/07/26 03:06:44;;;;;;;1.50;1.40;;;20.00;56.20;;;;;;5132925;27;20649;-60
2023/07/26 03:09:09;;;;;;;1.67;1.52;;;20.00;56.30;;;;;;5133538;27;20229;-60
2023/07/26 03:11:36;;;;;;;1.38;1.20;;;20.00;56.20;;;;;;5133837;27;20651;-60
2023/07/26 03:14:01;;;;;;;3.00;1.45;;;20.00;56.10;;;;;;5132539;27;20204;-60
2023/07/26 03:16:27;;;;;;;1.20;1.10;;;20.00;56.00;;;;;;5133665;27;20182;-60
2023/07/26 03:18:52;;;;;;;2.00;1.45;;;20.00;56.00;;;;;;5133681;27;20179;-60
2023/07/26 03:21:18;;;;;;;1.63;1.52;;;20.00;56.00;;;;;;5132640;27;20176;-60
2023/07/26 03:23:43;;;;;;;1.65;1.55;;;20.00;56.00;;;;;;5133623;27;20168;-60
2023/07/26 03:26:09;;;;;;;2.17;1.40;;;20.00;56.00;;;;;;5132469;27;20172;-60
2023/07/26 03:28:35;;;;;;;1.58;1.48;;;20.00;55.90;;;;;;5133343;27;20221;-60
2023/07/26 03:31:00;;;;;;;2.35;1.50;;;20.00;55.90;;;;;;5115332;27;20286;-60
2023/07/26 03:33:26;;;;;;;1.55;1.40;;;20.00;55.80;;;;;;5112480;28;20995;-60
2023/07/26 03:35:54;;;;;;;2.88;1.60;;;20.00;55.80;;;;;;5112797;28;20667;-62
2023/07/26 03:38:20;;;;;;;1.50;1.40;;;19.90;55.70;;;;;;5112505;28;20169;-61
2023/07/26 03:40:46;;;;;;;3.20;1.50;;;19.90;55.70;;;;;;5111881;28;20556;-61
2023/07/26 03:43:11;;;;;;;2.08;1.50;;;19.90;55.70;;;;;;5112572;28;20174;-61
2023/07/26 03:45:37;;;;;;;1.30;1.20;;;19.90;56.40;;;;;;5112562;28;20181;-61
2023/07/26 03:48:02;;;;;;;2.78;1.48;;;19.90;55.60;;;;;;5112042;28;20192;-60
2023/07/26 03:50:29;;;;;;;1.33;1.23;;;19.90;55.60;;;;;;5112635;28;20211;-60
2023/07/26 03:52:54;;;;;;;1.50;1.40;;;19.90;55.60;;;;;;5112614;28;20183;-59
2023/07/26 03:55:20;;;;;;;2.72;1.65;;;19.90;55.60;;;;;;5111729;28;20208;-60
2023/07/26 03:57:45;;;;;;;1.52;1.42;;;19.90;55.50;;;;;;5112648;28;20196;-60
2023/07/26 04:00:11;;;;;;;1.60;1.50;;;19.80;56.10;;;;;;5112386;28;20624;-61
2023/07/26 04:02:37;;;;;;;2.08;1.60;;;19.80;55.40;;;;;;5111905;28;20224;-61
2023/07/26 04:05:03;;;;;;;1.73;1.50;;;19.80;55.40;;;;;;5112482;28;20177;-61
2023/07/26 04:07:28;;;;;;;1.60;1.50;;;19.80;55.40;;;;;;5112925;28;20172;-60
2023/07/26 04:09:54;;;;;;;3.17;1.65;;;19.90;55.40;;;;;;5111805;28;20610;-60
2023/07/26 04:12:19;;;;;;;1.73;1.55;;;19.80;55.20;;;;;;5112375;28;20506;-60
2023/07/26 04:14:45;;;;;;;1.90;1.80;;;19.80;55.30;;;;;;5112219;28;20535;-60
2023/07/26 04:17:10;;;;;;;3.50;1.48;;;19.80;55.30;;;;;;5111320;28;20513;-60
2023/07/26 04:19:36;;;;;;;1.50;1.40;;;19.80;55.30;;;;;;5114119;28;20181;-61
2023/07/26 04:22:01;;;;;;;2.83;1.55;;;19.80;55.30;;;;;;5115973;28;20173;-61
2023/07/26 04:24:27;;;;;;;1.83;1.60;;;19.80;55.20;;;;;;5115657;28;20180;-60
2023/07/26 04:26:53;;;;;;;1.85;1.70;;;19.80;55.20;;;;;;5116294;28;20649;-60
2023/07/26 04:29:18;;;;;;;1.70;1.60;;;19.80;55.20;;;;;;5118882;27;20173;-60
2023/07/26 04:31:44;;;;;;;1.98;1.77;;;19.90;55.30;;;;;;5135874;27;20314;-61
2023/07/26 04:34:10;;;;;;;1.75;1.60;;;19.80;55.10;;;;;;5136384;27;20295;-61
2023/07/26 04:36:35;;;;;;;1.58;1.48;;;19.80;55.80;;;;;;5135963;27;20174;-61
2023/07/26 04:39:01;;;;;;;1.67;1.48;;;19.80;55.20;;;;;;5136249;27;20194;-61
2023/07/26 04:41:26;;;;;;;1.60;1.50;;;19.80;55.20;;;;;;5136287;27;20303;-61
2023/07/26 04:43:52;;;;;;;3.50;1.58;;;19.80;55.30;;;;;;5135609;27;20217;-61
2023/07/26 04:46:21;;;;;;;1.73;1.55;;;19.80;55.20;;;;;;5136013;27;20168;-62
2023/07/26 04:48:51;;;;;;;2.22;2.03;;;19.80;55.30;;;;;;5136029;27;20241;-62
2023/07/26 04:51:16;;;;;;;2.50;1.60;;;19.80;55.30;;;;;;5135463;27;20550;-61
2023/07/26 04:53:42;;;;;;;1.75;1.58;;;19.80;55.30;;;;;;5136255;27;20627;-61
2023/07/26 04:56:07;;;;;;;1.42;1.33;;;19.80;55.40;;;;;;5136282;27;20190;-61
2023/07/26 04:58:33;;;;;;;1.48;1.38;;;19.80;55.50;;;;;;5135725;27;20175;-62
2023/07/26 05:00:58;;;;;;;1.65;1.50;;;19.80;55.50;;;;;;5136219;27;20248;-62
2023/07/26 05:03:24;;;;;;;1.95;1.85;;;19.80;55.60;;;;;;5136206;27;20591;-62
2023/07/26 05:05:50;;;;;;;1.63;1.52;;;19.80;55.60;;;;;;5135335;27;20168;-62
2023/07/26 05:08:15;;;;;;;1.85;1.75;;;19.80;56.20;;;;;;5135729;27;20642;-62
2023/07/26 05:10:41;;;;;;;1.60;1.50;;;19.80;55.60;;;;;;5136105;27;20225;-59
2023/07/26 05:13:07;;;;;;;2.58;1.70;;;19.80;55.70;;;;;;5134689;27;20176;-60
2023/07/26 05:15:32;;;;;;;1.60;1.50;;;19.80;55.70;;;;;;5135720;27;20239;-60
2023/07/26 05:17:58;;;;;;;2.10;1.70;;;19.80;55.80;;;;;;5135768;27;20196;-60
2023/07/26 05:20:23;;;;;;;1.80;1.70;;;19.80;55.90;;;;;;5135037;27;20515;-61
2023/07/26 05:22:49;;;;;;;2.30;2.10;;;19.80;55.90;;;;;;5135846;27;20227;-62
2023/07/26 05:25:14;;;;;;;2.15;1.95;;;19.80;55.90;;;;;;5135573;27;20272;-61
2023/07/26 05:27:40;;;;;;;2.63;1.45;;;19.90;56.00;;;;;;5134947;27;20598;-61
2023/07/26 05:30:06;;;;;;;2.40;1.73;;;19.90;56.10;;;;;;5125348;27;20232;-61
2023/07/26 05:32:32;;;;;;;2.03;1.85;;;19.90;56.10;;;;;;5114857;28;20173;-61
2023/07/26 05:34:57;;;;;;;2.90;2.22;;;19.90;56.10;;;;;;5113973;28;20358;-62
2023/07/26 05:37:23;;;;;;;2.20;2.05;;;19.90;56.20;;;;;;5114956;28;20177;-62
2023/07/26 05:39:49;;;;;;;2.17;2.08;;;19.90;56.40;;;;;;5114040;28;20217;-63
2023/07/26 05:42:15;;;;;;;2.97;2.33;;;19.80;56.40;;;;;;5114628;28;20329;-62
2023/07/26 05:44:40;;;;;;;2.20;2.00;;;19.90;56.50;;;;;;5114763;28;20173;-60
2023/07/26 05:47:06;;;;;;;3.20;2.50;;;19.80;56.60;;;;;;5113624;28;20214;-60
2023/07/26 05:49:31;;;;;;;2.13;1.92;;;19.80;56.70;;;;;;5114607;28;20230;-60
2023/07/26 05:51:57;;;;;;;2.67;1.98;;;19.80;57.40;;;;;;5114244;28;20611;-59
2023/07/26 05:54:23;;;;;;;2.47;2.28;;;19.80;56.80;;;;;;5113799;28;20216;-61
2023/07/26 05:56:48;;;;;;;2.50;2.30;;;19.80;57.50;;;;;;5114407;28;20169;-60
2023/07/26 05:59:14;;;;;;;2.22;1.80;;;19.80;57.00;;;;;;5114429;28;20246;-61
2023/07/26 06:01:40;;;;;;;2.72;2.42;;;19.80;57.00;;;;;;5113805;28;20169;-62
2023/07/26 06:04:05;;;;;;;2.45;2.03;;;19.80;57.00;;;;;;5114025;28;20177;-62
2023/07/26 06:06:31;;;;;;;3.05;2.17;;;19.80;57.70;;;;;;5114376;28;20161;-61
2023/07/26 06:08:57;;;;;;;1.80;1.70;;;19.80;57.10;;;;;;5113322;28;20177;-61
2023/07/26 06:11:23;;;;;;;2.05;1.95;;;19.80;57.20;;;;;;5114417;28;20180;-61
2023/07/26 06:13:49;;;;;;;3.08;2.33;;;19.80;57.20;;;;;;5114339;28;20197;-61
2023/07/26 06:16:14;;;;;;;2.63;2.42;;;19.80;57.20;;;;;;5113273;28;20599;-61
2023/07/26 06:18:40;;;;;;;2.30;2.10;;;19.90;57.30;;;;;;5114029;28;20169;-61
2023/07/26 06:21:05;;;;;;;3.35;2.22;;;19.90;57.10;;;;;;5113600;28;20180;-61
2023/07/26 06:23:31;;;;;;;3.13;2.15;;;19.90;57.20;;;;;;5113134;28;20173;-61
2023/07/26 06:25:56;;;;;;;2.83;2.42;;;20.00;57.20;;;;;;5113477;28;20177;-61
2023/07/26 06:28:22;;;;;;;2.17;1.98;;;19.90;57.30;;;;;;5114014;28;20176;-61
2023/07/26 06:30:48;;;;;;;2.33;1.92;;;20.00;57.30;;;;;;5129101;27;20177;-61
2023/07/26 06:33:13;;;;;;;2.15;1.95;;;20.00;57.40;;;;;;5134234;27;20168;-61
2023/07/26 06:35:39;;;;;;;2.50;2.30;;;20.00;57.30;;;;;;5134352;27;20253;-61
2023/07/26 06:38:05;;;;;;;2.50;2.30;;;20.00;57.40;;;;;;5114815;27;20172;-62
2023/07/26 06:40:30;;;;;;;2.63;1.83;;;20.00;57.40;;;;;;5134002;27;20231;-62
2023/07/26 06:42:56;;;;;;;1.80;1.70;;;20.00;57.40;;;;;;5133498;27;20576;-61
2023/07/26 06:45:21;;;;;;;2.60;2.40;;;20.00;57.60;;;;;;5133401;27;20702;-61
2023/07/26 06:47:47;;;;;;;2.33;2.13;;;20.00;57.60;;;;;;5134290;27;20173;-60
2023/07/26 06:50:13;;;;;;;2.47;2.13;;;20.00;57.60;;;;;;5133060;27;20169;-60
2023/07/26 06:52:38;;;;;;;2.90;2.10;;;19.90;57.70;;;;;;5133885;27;20172;-60
2023/07/26 06:55:04;;;;;;;3.50;2.05;;;20.00;57.70;;;;;;5133583;27;20577;-60
2023/07/26 06:57:30;;;;;;;2.90;2.28;;;19.90;57.70;;;;;;5133334;27;20229;-60
2023/07/26 06:59:55;;;;;;;2.70;1.95;;;19.90;57.70;;;;;;5133832;27;20172;-61
2023/07/26 07:02:21;;;;;;;2.17;1.80;;;19.90;57.70;;;;;;5133862;27;20168;-61
2023/07/26 07:04:46;;;;;;;2.00;1.80;;;19.90;58.40;;;;;;5132936;27;20267;-61
2023/07/26 07:07:12;;;;;;;2.00;1.90;;;19.90;57.80;;;;;;5133358;27;20172;-61
2023/07/26 07:09:37;;;;;;;3.78;2.10;;;19.90;57.80;;;;;;5133758;27;20184;-61
2023/07/26 07:12:03;;;;;;;2.85;2.10;;;19.90;57.90;;;;;;5132873;27;20571;-60
2023/07/26 07:14:29;;;;;;;1.83;1.70;;;19.90;58.00;;;;;;5133753;27;20634;-60
2023/07/26 07:16:54;;;;;;;1.90;1.73;;;19.90;58.00;;;;;;5133814;27;20690;-61
2023/07/26 07:19:20;;;;;;;2.40;2.20;;;19.90;58.00;;;;;;5132416;27;20539;-60
2023/07/26 07:21:45;;;;;;;2.10;1.90;;;19.90;58.00;;;;;;5133460;27;20203;-61
2023/07/26 07:24:11;;;;;;;2.97;2.28;;;19.90;58.10;;;;;;5133367;27;20646;-61
2023/07/26 07:26:36;;;;;;;2.28;2.08;;;19.90;58.10;;;;;;5132694;27;20183;-61
2023/07/26 07:29:02;;;;;;;2.90;2.60;;;19.90;58.20;;;;;;5132221;27;20176;-60
2023/07/26 07:31:27;;;;;;;4.90;2.42;;;19.90;58.20;;;;;;5112909;28;20177;-61
2023/07/26 07:33:53;;;;;;;3.13;2.10;;;19.90;58.30;;;;;;5111905;28;20212;-61
2023/07/26 07:36:19;;;;;;;2.65;2.10;;;19.80;58.30;;;;;;5112425;28;20173;-62
2023/07/26 07:38:45;;;;;;;3.15;2.22;;;19.90;58.40;;;;;;5112546;28;20263;-61
2023/07/26 07:41:14;;;;;;;3.40;2.42;;;19.80;58.40;;;;;;5111682;28;20221;-61
2023/07/26 07:43:40;;;;;;;2.10;1.90;;;19.80;58.50;;;;;;5112896;28;20542;-61
2023/07/26 07:46:05;;;;;;;2.25;1.98;;;19.80;58.50;;;;;;5112327;28;20199;-61
2023/07/26 07:48:31;;;;;;;2.65;2.05;;;19.80;58.60;;;;;;5112035;28;20188;-61
2023/07/26 07:50:57;;;;;;;2.58;2.30;;;19.80;58.60;;;;;;5112520;28;20180;-60
2023/07/26 07:53:23;;;;;;;2.42;2.15;;;19.70;58.70;;;;;;5113392;28;20168;-60
2023/07/26 07:55:49;;;;;;;2.40;2.05;;;19.80;58.90;;;;;;5116987;28;20210;-60
2023/07/26 07:58:14;;;;;;;3.25;2.25;;;19.70;59.50;;;;;;5116544;28;20267;-61
2023/07/26 08:00:40;;;;;;;2.28;1.98;;;19.70;58.80;;;;;;5116228;28;20177;-62
2023/07/26 08:03:06;;;;;;;3.22;2.30;;;19.70;58.80;;;;;;5116597;28;20655;-61
2023/07/26 08:05:35;;;;;;;2.03;1.83;;;19.70;58.80;;;;;;5116768;28;20214;-61
2023/07/26 08:08:00;;;;;;;3.30;2.20;;;19.80;58.90;;;;;;5115838;28;20280;-61
2023/07/26 08:10:26;;;;;;;2.17;1.90;;;19.80;58.90;;;;;;5116794;28;20587;-61
2023/07/26 08:12:51;;;;;;;2.60;2.05;;;19.80;58.90;;;;;;5116559;28;20169;-60
2023/07/26 08:15:17;;;;;;;2.10;1.90;;;19.70;58.80;;;;;;5115506;28;20220;-60
2023/07/26 08:17:43;;;;;;;2.38;1.92;;;19.80;58.90;;;;;;5116665;28;20260;-61
2023/07/26 08:20:09;;;;;;;3.33;1.83;;;19.80;58.90;;;;;;5116251;28;20173;-62
2023/07/26 08:22:34;;;;;;;1.80;1.70;;;19.80;58.90;;;;;;5115543;28;20286;-61
2023/07/26 08:25:00;;;;;;;2.67;2.00;;;19.80;58.90;;;;;;5116337;28;20598;-61
2023/07/26 08:27:26;;;;;;;3.08;1.98;;;19.80;58.90;;;;;;5116256;28;20616;-67
2023/07/26 08:29:51;;;;;;;5.25;1.80;;;19.90;58.90;;;;;;5123130;27;20169;-60
2023/07/26 08:32:17;;;;;;;2.33;1.70;;;20.00;58.70;;;;;;5125240;27;20219;-61
2023/07/26 08:34:43;;;;;;;1.75;1.52;;;20.00;58.80;;;;;;5116056;28;20209;-63
2023/07/26 08:37:09;;;;;;;3.15;1.75;;;20.10;58.70;;;;;;5114958;28;20169;-62
2023/07/26 08:39:35;;;;;;;3.00;1.75;;;20.10;58.80;;;;;;5115806;28;20223;-62
2023/07/26 08:42:00;;;;;;;3.03;1.40;;;20.00;59.00;;;;;;5116059;28;20214;-62
2023/07/26 08:44:26;;;;;;;2.17;1.40;;;20.00;58.70;;;;;;5115267;28;20575;-62
2023/07/26 08:46:52;;;;;;;2.58;1.60;;;20.10;58.70;;;;;;5116027;28;20177;-65
2023/07/26 08:49:18;;;;;;;3.10;1.52;;;20.10;59.00;;;;;;5097443;28;20169;-66
2023/07/26 08:51:43;;;;;;;2.45;1.60;;;20.20;58.90;;;;;;5080104;28;20169;-66
2023/07/26 08:54:09;;;;;;;2.88;1.55;;;20.20;58.90;;;;;;5099833;27;20196;-63
2023/07/26 08:56:35;;;;;;;2.65;1.60;;;20.30;59.00;;;;;;5100626;27;20169;-65
2023/07/26 08:59:01;;;;;;;1.58;1.48;;;20.30;58.80;;;;;;5124168;27;20168;-66
2023/07/26 09:01:26;;;;;;;2.42;1.60;;;20.30;58.80;;;;;;5123958;27;20638;-67
2023/07/26 09:03:52;;;;;;;3.05;1.70;;;20.40;58.80;;;;;;5087613;27;20183;-66
2023/07/26 09:06:18;;;;;;;2.65;1.95;;;20.40;58.80;;;;;;5124917;27;20534;-65
2023/07/26 09:08:43;;;;;;;3.00;1.92;;;20.40;58.80;;;;;;5126192;27;20208;-65
2023/07/26 09:11:26;;;;;;;1.83;1.48;;;20.50;58.80;;;;;;5123800;27;20165;-65
2023/07/26 09:14:01;;;;;;;2.88;1.35;;;20.50;58.80;;;;;;5129029;27;20176;-65
2023/07/26 09:16:27;;;;;;;2.20;1.27;;;20.50;58.80;;;;;;5135337;27;20202;-65
2023/07/26 09:19:04;;;;;;;1.52;1.20;;;20.50;58.80;;;;;;5134212;27;20213;-65
2023/07/26 09:21:31;;;;;;;2.67;1.27;;;20.50;58.70;;;;;;5135791;27;20168;-65
2023/07/26 09:23:57;;;;;;;2.08;1.60;;;20.70;58.80;;;;;;5135409;27;20225;-65
2023/07/26 09:26:42;;;;;;;2.58;1.50;;;20.60;58.70;;;;;;5134978;27;20177;-65
2023/07/26 09:29:10;;;;;;;2.28;1.38;;;20.60;58.60;;;;;;5133455;27;20602;-64
2023/07/26 09:31:36;;;;;;;1.40;1.30;;;20.60;58.70;;;;;;5115048;28;20200;-65
2023/07/26 09:34:06;;;;;;;2.33;1.38;;;20.60;58.70;;;;;;5113852;28;20699;-66
2023/07/26 09:36:51;;;;;;;2.20;1.67;;;20.70;58.60;;;;;;5115079;28;20185;-66
2023/07/26 09:39:21;;;;;;;1.88;1.30;;;20.70;58.70;;;;;;5113611;28;20177;-66
2023/07/26 09:41:49;;;;;;;1.50;1.17;;;20.60;58.60;;;;;;5114613;28;20269;-66
2023/07/26 09:44:15;;;;;;;1.52;1.40;;;20.70;58.60;;;;;;5114346;28;20177;-66
2023/07/26 09:46:55;;;;;;;1.60;1.30;;;20.70;58.60;;;;;;5114162;28;20257;-65
2023/07/26 09:49:22;;;;;;;1.40;1.30;;;20.70;58.60;;;;;;5114470;28;20211;-65
2023/07/26 09:51:48;;;;;;;2.67;1.33;;;20.80;58.70;;;;;;5114082;28;20584;-64
2023/07/26 09:54:14;;;;;;;1.85;1.38;;;20.80;58.60;;;;;;5113227;28;20215;-64
2023/07/26 09:56:41;;;;;;;1.92;1.42;;;20.80;58.60;;;;;;5114666;28;20169;-64
2023/07/26 09:59:11;;;;;;;1.45;1.35;;;20.80;58.50;;;;;;5114293;28;20208;-65
2023/07/26 10:01:42;;;;;;;1.30;1.20;;;20.80;58.50;;;;;;5113732;28;20173;-66
2023/07/26 10:04:26;;;;;;;1.80;1.38;;;20.90;58.60;;;;;;5113422;28;20177;-65
2023/07/26 10:06:52;;;;;;;2.72;1.15;;;20.90;58.50;;;;;;5097157;28;20234;-66
2023/07/26 10:09:17;;;;;;;1.42;1.30;;;20.90;58.50;;;;;;5095117;28;20563;-65
2023/07/26 10:11:43;;;;;;;1.33;1.20;;;21.00;58.40;;;;;;5096217;28;20622;-65
2023/07/26 10:14:09;;;;;;;1.30;1.02;;;21.00;58.30;;;;;;5113138;28;20201;-65
2023/07/26 10:16:36;;;;;;;1.48;1.38;;;21.00;58.30;;;;;;5112929;28;20542;-65
2023/07/26 10:19:02;;;;;;;1.95;1.10;;;21.00;58.30;;;;;;5095071;28;20685;-65
2023/07/26 10:21:28;;;;;;;1.25;1.15;;;21.10;58.20;;;;;;5113141;28;20196;-66
2023/07/26 10:23:55;;;;;;;1.80;1.30;;;21.20;58.10;;;;;;5095619;28;20177;-66
2023/07/26 10:26:21;;;;;;;1.73;1.20;;;21.20;58.00;;;;;;5096017;28;20660;-66
2023/07/26 10:28:46;;;;;;;1.30;1.20;;;21.30;58.10;;;;;;5094858;28;20173;-66
2023/07/26 10:31:13;;;;;;;1.63;1.30;;;21.30;58.00;;;;;;5077920;28;20189;-66
2023/07/26 10:33:45;;;;;;;2.10;1.40;;;21.30;58.00;;;;;;5095639;28;20203;-66
2023/07/26 10:36:10;;;;;;;1.42;1.33;;;21.10;58.10;;;;;;5112789;28;20184;-64
2023/07/26 10:38:50;;;;;;;2.22;1.50;;;21.00;58.40;;;;;;5113702;28;20169;-64
2023/07/26 10:41:25;;;;;;;2.10;1.42;;;20.90;58.70;;;;;;5114670;27;20233;-63
2023/07/26 10:44:04;;;;;;;1.98;1.58;;;20.90;59.00;;;;;;5130908;27;20188;-64
2023/07/26 10:46:35;;;;;;;1.55;1.45;;;20.80;59.20;;;;;;5113543;28;20180;-62
2023/07/26 10:49:17;;;;;;;1.83;1.70;;;20.70;59.30;;;;;;5104214;27;20573;-62
2023/07/26 10:51:57;;;;;;;1.60;1.50;;;20.70;59.30;;;;;;5116730;27;20249;-62
2023/07/26 10:54:46;;;;;;;1.40;1.30;;;20.70;59.40;;;;;;5113184;28;20197;-63
2023/07/26 10:57:19;;;;;;;1.52;1.40;;;20.70;59.40;;;;;;5102377;28;20185;-62
2023/07/26 11:00:08;;;;;;;1.58;1.40;;;20.70;59.40;;;;;;5113190;28;20173;-63
2023/07/26 11:02:39;;;;;;;1.98;1.52;;;20.60;59.40;;;;;;5113366;28;20214;-63
2023/07/26 11:05:08;;;;;;;1.45;1.30;;;20.60;59.50;;;;;;5112185;28;20626;-63
2023/07/26 11:07:59;;;;;;;3.78;1.73;;;20.70;59.30;;;;;;5113547;28;20173;-62
2023/07/26 11:10:34;;;;;;;1.40;1.30;;;20.80;59.20;;;;;;5112909;28;20195;-63
2023/07/26 11:13:06;;;;;;;1.50;1.40;;;20.80;59.10;;;;;;5112940;28;20176;-62
2023/07/26 11:15:32;;;;;;;2.28;1.33;;;20.90;59.00;;;;;;5113174;28;20683;-62
2023/07/26 11:17:57;;;;;;;1.40;1.30;;;21.00;59.00;;;;;;5112137;28;20181;-62
2023/07/26 11:20:23;;;;;;;1.98;1.77;;;21.00;58.90;;;;;;5113170;28;20177;-63
2023/07/26 11:22:48;;;;;;;1.80;1.63;;;21.00;58.90;;;;;;5112826;28;20222;-63
2023/07/26 11:25:14;;;;;;;2.00;1.75;;;21.10;58.80;;;;;;5112187;28;20208;-63
2023/07/26 11:27:40;;;;;;;1.92;1.70;;;21.10;58.70;;;;;;5112375;28;20547;-62
2023/07/26 11:30:12;;;;;;;1.75;1.55;;;21.10;58.70;;;;;;5094217;28;20181;-62
2023/07/26 11:32:45;;;;;;;2.08;1.63;;;21.10;58.80;;;;;;5112402;28;20173;-63
2023/07/26 11:35:10;;;;;;;1.98;1.73;;;21.00;58.80;;;;;;5112721;28;20228;-64
2023/07/26 11:37:36;;;;;;;1.80;1.70;;;21.00;58.90;;;;;;5113220;28;20521;-64
2023/07/26 11:40:03;;;;;;;2.25;1.92;;;21.00;59.70;;;;;;5110986;28;20401;-64
2023/07/26 11:42:30;;;;;;;2.63;1.50;;;21.00;58.80;;;;;;5112673;28;20181;-63
2023/07/26 11:44:56;;;;;;;1.63;1.52;;;21.10;58.80;;;;;;5112644;28;20259;-63
2023/07/26 11:47:22;;;;;;;1.70;1.58;;;21.10;58.90;;;;;;5112095;28;20315;-63
2023/07/26 11:49:47;;;;;;;1.92;1.75;;;21.10;58.90;;;;;;5112887;28;20234;-63
2023/07/26 11:52:16;;;;;;;2.05;1.63;;;21.00;59.10;;;;;;5077660;28;20620;-62
2023/07/26 11:55:02;;;;;;;1.75;1.65;;;20.90;59.20;;;;;;5112076;28;20265;-63
2023/07/26 11:57:28;;;;;;;2.35;2.10;;;20.90;59.40;;;;;;5112870;28;20265;-63
2023/07/26 11:59:59;;;;;;;1.70;1.60;;;20.80;59.40;;;;;;5112041;28;20177;-63
2023/07/26 12:02:25;;;;;;;1.83;1.67;;;20.80;59.60;;;;;;5112792;28;20246;-63
2023/07/26 12:05:16;;;;;;;3.55;1.88;;;20.80;59.60;;;;;;5112625;28;20560;-63
2023/07/26 12:07:46;;;;;;;2.67;1.45;;;20.90;59.40;;;;;;5111764;28;21061;-63
2023/07/26 12:10:12;;;;;;;2.40;2.05;;;21.00;59.10;;;;;;5112462;28;20269;-63
2023/07/26 12:12:42;;;;;;;2.15;1.60;;;21.00;59.00;;;;;;5094314;28;20169;-63
2023/07/26 12:15:09;;;;;;;1.88;1.77;;;21.00;59.10;;;;;;5111480;28;20258;-62
2023/07/26 12:17:35;;;;;;;2.03;1.83;;;21.00;59.20;;;;;;5112277;28;20684;-63
2023/07/26 12:20:06;;;;;;;2.35;1.77;;;21.00;59.30;;;;;;5093829;28;20181;-63
2023/07/26 12:22:32;;;;;;;1.70;1.60;;;20.90;59.30;;;;;;5111908;28;20181;-63
2023/07/26 12:25:00;;;;;;;1.60;1.50;;;20.90;59.30;;;;;;5094098;28;20173;-62
2023/07/26 12:27:25;;;;;;;1.67;1.52;;;20.90;59.30;;;;;;5112088;28;20192;-62
2023/07/26 12:29:51;;;;;;;3.00;2.05;;;20.90;59.30;;;;;;5111618;28;20165;-63
2023/07/26 12:32:17;;;;;;;2.22;1.85;;;21.00;59.40;;;;;;5093945;28;20183;-63
2023/07/26 12:34:43;;;;;;;1.95;1.85;;;21.00;59.30;;;;;;5111543;28;20231;-64
2023/07/26 12:37:09;;;;;;;1.88;1.50;;;21.00;59.30;;;;;;5112003;28;20177;-67
2023/07/26 12:39:37;;;;;;;2.00;1.85;;;21.00;59.40;;;;;;5093971;28;20308;-64
2023/07/26 12:42:02;;;;;;;2.22;1.98;;;21.00;59.30;;;;;;5114902;28;20177;-63
2023/07/26 12:44:28;;;;;;;2.30;1.73;;;21.20;59.00;;;;;;5097860;28;20184;-63
2023/07/26 12:46:54;;;;;;;2.28;1.90;;;21.20;58.80;;;;;;5115820;28;20585;-63